createdAt,value
2022-12-08T00:14:33.687Z,10.10
2022-12-08T00:25:01.254Z,9.30
2022-12-08T00:35:28.909Z,9.40
2022-12-08T00:45:56.373Z,8.50
2022-12-08T00:56:24.272Z,8.50
2022-12-08T01:06:51.726Z,7.40
2022-12-08T01:17:19.203Z,7.70
2022-12-08T01:27:46.612Z,8.70
2022-12-08T01:38:14.195Z,7.70
2022-12-08T01:48:41.754Z,9.50
2022-12-08T01:59:09.626Z,9.20
2022-12-08T02:09:37.923Z,8.10
2022-12-08T02:20:34.475Z,7.70
2022-12-08T02:31:12.384Z,9.20
2022-12-08T02:41:47.700Z,9.50
2022-12-08T02:52:43.091Z,8.10
2022-12-08T03:03:20.678Z,8.60
2022-12-08T03:13:52.592Z,6.60
2022-12-08T03:24:21.101Z,8.10
2022-12-08T03:34:50.595Z,7.20
2022-12-08T03:45:18.168Z,5.80
2022-12-08T03:55:45.957Z,6.80
2022-12-08T04:06:13.771Z,6.10
2022-12-08T04:16:41.374Z,6.20
2022-12-08T04:27:08.781Z,6.20
2022-12-08T04:37:36.180Z,8.60
2022-12-08T04:48:04.019Z,6.70
2022-12-08T04:58:31.564Z,8.40
2022-12-08T05:08:58.980Z,6.30
2022-12-08T05:19:26.650Z,5.70
2022-12-08T05:29:54.033Z,6.10
2022-12-08T05:40:21.635Z,6.60
2022-12-08T05:50:51.150Z,7.90
2022-12-08T06:01:27.592Z,15.30
2022-12-08T06:11:54.960Z,13.50
2022-12-08T06:22:22.338Z,17.90
2022-12-08T06:32:49.763Z,18.30
2022-12-08T06:43:17.238Z,14.30
2022-12-08T06:53:45.539Z,7.50
2022-12-08T07:04:13.013Z,8.50
2022-12-08T07:14:40.468Z,9.20
2022-12-08T07:25:09.197Z,6.60
2022-12-08T07:46:03.531Z,6.00
2022-12-08T07:56:31.177Z,7.90
2022-12-08T08:06:58.595Z,6.20
2022-12-08T08:17:26.143Z,11.70
2022-12-08T08:27:53.744Z,8.90
2022-12-08T08:38:21.588Z,14.00
2022-12-08T08:48:49.538Z,12.90
2022-12-08T08:59:17.527Z,11.30
2022-12-08T09:09:45.054Z,8.80
2022-12-08T09:20:13.122Z,14.70
2022-12-08T09:30:40.598Z,11.40
2022-12-08T09:41:19.014Z,7.50
2022-12-08T09:51:47.393Z,8.60
2022-12-08T10:02:24.416Z,8.10
2022-12-08T10:12:59.704Z,11.20
2022-12-08T10:23:32.969Z,9.90
2022-12-08T10:34:02.608Z,11.60
2022-12-08T10:44:30.676Z,10.50
2022-12-08T10:55:03.101Z,20.20
2022-12-08T11:05:33.574Z,11.40
2022-12-08T11:16:01.049Z,10.80
2022-12-08T11:26:33.328Z,11.80
2022-12-08T11:37:02.335Z,7.50
2022-12-08T11:47:35.614Z,8.60
2022-12-08T11:58:14.389Z,11.40
2022-12-08T12:08:51.574Z,8.10
2022-12-08T12:19:21.682Z,7.60
2022-12-08T12:29:55.952Z,9.60
2022-12-08T12:40:26.534Z,7.70
2022-12-08T12:50:55.580Z,13.30
2022-12-08T13:12:28.035Z,15.60
2022-12-08T13:23:27.113Z,8.80
2022-12-08T14:06:15.473Z,8.50
2022-12-08T14:16:51.276Z,9.50
2022-12-08T14:27:22.740Z,9.40
2022-12-08T14:37:53.190Z,11.20
2022-12-08T14:48:29.076Z,8.50
2022-12-08T14:59:08.684Z,8.80
2022-12-08T15:09:39.650Z,6.10
2022-12-08T15:20:33.210Z,4.70
2022-12-08T15:31:02.448Z,7.00
2022-12-08T15:41:29.997Z,7.50
2022-12-08T15:52:08.038Z,8.70
2022-12-08T16:03:13.025Z,7.60
2022-12-08T16:14:16.663Z,5.40
2022-12-08T16:24:33.060Z,6.40
2022-12-08T16:35:01.283Z,5.30
2022-12-08T16:45:31.098Z,6.10
2022-12-08T16:55:58.488Z,6.50
2022-12-08T17:06:26.028Z,7.10
2022-12-08T17:16:53.756Z,7.20
2022-12-08T17:27:21.537Z,8.30
2022-12-08T17:37:49.179Z,13.00
2022-12-08T17:48:17.504Z,15.20
2022-12-08T17:58:49.857Z,14.40
2022-12-08T18:09:23.075Z,13.20
2022-12-08T18:19:50.647Z,11.90
2022-12-08T18:30:20.722Z,12.10
2022-12-08T18:40:48.143Z,14.30
2022-12-08T18:51:17.102Z,11.70
2022-12-08T19:01:44.915Z,16.10
2022-12-08T19:12:13.350Z,12.00
2022-12-08T19:22:40.787Z,13.90
2022-12-08T19:33:08.249Z,14.60
2022-12-08T19:43:52.866Z,13.00
2022-12-08T19:54:20.423Z,12.80
2022-12-08T20:04:47.871Z,14.20
2022-12-08T20:15:15.876Z,14.90
2022-12-08T20:25:45.244Z,15.90
2022-12-08T20:36:18.832Z,12.70
2022-12-08T20:46:49.536Z,19.30
2022-12-08T20:57:17.261Z,14.10
2022-12-08T21:07:45.018Z,17.50
2022-12-08T21:18:12.654Z,21.90
2022-12-08T21:28:40.375Z,21.10
2022-12-08T21:39:12.818Z,23.80
2022-12-08T21:49:40.537Z,28.30
2022-12-08T22:00:10.679Z,25.40
2022-12-08T22:10:38.788Z,22.30
2022-12-08T22:21:11.306Z,24.60
2022-12-08T22:31:38.935Z,28.60
2022-12-08T22:42:06.904Z,54.80
2022-12-08T22:52:34.586Z,41.00
2022-12-08T23:03:02.376Z,41.20
2022-12-08T23:13:29.851Z,35.60
2022-12-08T23:23:57.269Z,35.40
2022-12-08T23:34:24.929Z,28.80
2022-12-08T23:44:52.836Z,35.70
2022-12-08T23:55:21.148Z,32.90
